To NAV CANADA Home Page Login to a new session Search on AWWS site Disclaimer Vers la page française équivalente Tips FAQ What's new on the site To the Forecasts and Observations / NOTAM section To "File a Flight Plan" website Publications and other links Update of the User's profile FIC Telephone Numbers My Weather Data Folder Route Weather Data Regional Weather Data Local Weather Data To the Forecasts and Observations / NOTAM section
Request Generated 10/19/2018 at 15:28:04 UTC . Weather information available at that time is displayed.

METAR/TAF

GRISE FIORD/NU    

METAR CWGZ 191500Z 10003KT 15SM FEW015 FEW023 FEW130 FEW260 M14/M20 A2978 RMK SF1SC1AC1CI1 SF TR SC TR SLP093=
METAR CWGZ 191400Z 06005KT 15SM FEW014 FEW019 FEW130 FEW260 M14/M21 A2979 RMK SF1SC1AC1CI1 SF TR SC TR AC TR CI TR SLP095=
METAR CWGZ 191300Z 00000KT 15SM FEW015 FEW020 FEW130 FEW260 M13/M19 A2979 RMK SF1SC1AC1CI1 SF TR SC TR AC TR SLP094=

CYGZ - No TAF is issued for this station

Your time UTC time
Weather data provided by Environment Canada and NAV CANADA